Zrenjanin, Serbia
Current Conditions -  °F | °C
As of 1:00 PM on Monday 22 Dec 2014 (Local Time) from LYBT Reporting Station
Clear Clear  
Wind Chill: 46°   Ceiling: Unl
Heat Index: 48°   Visibility: 6mi
Dew Point: 34°   Wind: 6mph
Humidity: 57%   Direction: 240°WSW
Pressure: 30.27"   Gusts: NA
Location:  45.37°N, 20.4°E
Report Text: LYBT 221100Z 24005KT 210V270 CAVOK 09/01 Q1025 NOSIG
Loading
Personal Weather Stations






























Interactive Weather Map New forecast layout! Learn more

10-Day Weather Forecast

Advertisements
Track Severe Weather on mobile